aviador You're here:

KROG Decoded Metar

ROGERS in AR, USA
Report Time2017-11-24 01:58:00
UTC Time2017-11-24 02:02:39
Flight Rules vfr VFR
Wind210° at 05 kt
W.Decomp.*RWY 20: 5.0 kt HW 0.5 kt RCW
W.Rank210° ranks 10
Current wind is below 210° avg. (9.2)
Visibility9999 m
Phenomena:N/A
Clouds:N/A
Expected CloudBase > 5,200 ft AGL from Temp-Dew spread
CeilingNone
Temp11°C (ISA -1)
Dew Point-2°C (41% RH)
AAT7.0°C
QNH1016 hPa
Density Alt1,184 ft
Elevation1,362 ft
Report Wrong Elevation
Raw Report
KROG 240158Z AUTO 21005KT 10SM CLR 11/M02 A3001 RMK AO2 SLP164
T01111017 $=

Extra information for KROG:More info

Metar Taf Metar & Taf Last 4 Metars F.Rules Stats Wind Profile Meteogram Temp Stats Airport Information Weather charts Add Link Nearby VenuesMetar ALERT Operation Metar Decoded Social comments

AIRNAV info for KROG